sensor_id;sensor_type;location;lat;lon;timestamp;P1;durP1;ratioP1;P2;durP2;ratioP2
61675;SDS011;47574;52.090;5.244;2023-03-01T00:01:09;14.0;;;11.6;;
61675;SDS011;47574;52.090;5.244;2023-03-01T00:02:49;15.4;;;11.4;;
61675;SDS011;47574;52.090;5.244;2023-03-01T00:06:03;14.9;;;11.7;;
61675;SDS011;47574;52.090;5.244;2023-03-01T00:07:40;15.6;;;11.5;;
61675;SDS011;47574;52.090;5.244;2023-03-01T00:09:16;13.5;;;10.9;;
61675;SDS011;47574;52.090;5.244;2023-03-01T00:11:01;13.2;;;11.1;;
61675;SDS011;47574;52.090;5.244;2023-03-01T00:14:15;12.8;;;11.4;;
61675;SDS011;47574;52.090;5.244;2023-03-01T00:15:51;12.5;;;11.0;;
61675;SDS011;47574;52.090;5.244;2023-03-01T00:17:28;13.8;;;11.2;;
61675;SDS011;47574;52.090;5.244;2023-03-01T00:20:41;14.5;;;11.9;;
61675;SDS011;47574;52.090;5.244;2023-03-01T00:22:17;13.1;;;11.4;;
61675;SDS011;47574;52.090;5.244;2023-03-01T00:23:53;14.8;;;12.2;;
61675;SDS011;47574;52.090;5.244;2023-03-01T00:27:07;15.7;;;12.6;;
61675;SDS011;47574;52.090;5.244;2023-03-01T00:28:43;17.11;;;13.0;;
61675;SDS011;47574;52.090;5.244;2023-03-01T00:30:20;14.6;;;11.5;;
61675;SDS011;47574;52.090;5.244;2023-03-01T00:31:56;16.3;;;11.7;;
61675;SDS011;47574;52.090;5.244;2023-03-01T00:35:09;16.7;;;13.1;;
61675;SDS011;47574;52.090;5.244;2023-03-01T00:36:45;15.6;;;12.5;;
61675;SDS011;47574;52.090;5.244;2023-03-01T00:38:22;20.11;;;13.6;;
61675;SDS011;47574;52.090;5.244;2023-03-01T00:41:34;17.8;;;12.7;;
61675;SDS011;47574;52.090;5.244;2023-03-01T00:43:10;19.11;;;13.9;;
61675;SDS011;47574;52.090;5.244;2023-03-01T00:44:46;21.6;;;14.7;;
61675;SDS011;47574;52.090;5.244;2023-03-01T00:48:02;21.7;;;14.9;;
61675;SDS011;47574;52.090;5.244;2023-03-01T00:49:38;20.8;;;14.4;;
61675;SDS011;47574;52.090;5.244;2023-03-01T00:51:15;21.6;;;14.7;;
61675;SDS011;47574;52.090;5.244;2023-03-01T00:52:53;19.3;;;13.7;;
61675;SDS011;47574;52.090;5.244;2023-03-01T00:56:08;18.3;;;13.3;;
61675;SDS011;47574;52.090;5.244;2023-03-01T00:57:45;18.5;;;14.1;;
61675;SDS011;47574;52.090;5.244;2023-03-01T00:59:21;18.8;;;14.6;;
61675;SDS011;47574;52.090;5.244;2023-03-01T01:02:34;16.8;;;13.0;;
61675;SDS011;47574;52.090;5.244;2023-03-01T01:04:11;18.5;;;13.0;;
61675;SDS011;47574;52.090;5.244;2023-03-01T01:05:49;15.2;;;12.1;;
61675;SDS011;47574;52.090;5.244;2023-03-01T01:07:25;15.3;;;12.8;;
61675;SDS011;47574;52.090;5.244;2023-03-01T01:10:42;15.0;;;12.2;;
61675;SDS011;47574;52.090;5.244;2023-03-01T01:12:19;15.7;;;12.6;;
61675;SDS011;47574;52.090;5.244;2023-03-01T01:13:56;15.1;;;13.0;;
61675;SDS011;47574;52.090;5.244;2023-03-01T01:17:10;16.4;;;12.6;;
61675;SDS011;47574;52.090;5.244;2023-03-01T01:18:46;14.2;;;12.3;;
61675;SDS011;47574;52.090;5.244;2023-03-01T01:20:22;16.3;;;12.5;;
61675;SDS011;47574;52.090;5.244;2023-03-01T01:23:35;15.4;;;13.8;;
61675;SDS011;47574;52.090;5.244;2023-03-01T01:25:12;15.2;;;13.0;;
61675;SDS011;47574;52.090;5.244;2023-03-01T01:26:48;15.3;;;13.1;;
61675;SDS011;47574;52.090;5.244;2023-03-01T01:28:25;18.0;;;13.4;;
61675;SDS011;47574;52.090;5.244;2023-03-01T01:31:39;15.2;;;13.6;;
61675;SDS011;47574;52.090;5.244;2023-03-01T01:33:17;17.41;;;14.1;;
61675;SDS011;47574;52.090;5.244;2023-03-01T01:34:53;17.0;;;14.1;;
61675;SDS011;47574;52.090;5.244;2023-03-01T01:38:09;17.41;;;13.9;;
61675;SDS011;47574;52.090;5.244;2023-03-01T01:39:45;16.2;;;14.2;;
61675;SDS011;47574;52.090;5.244;2023-03-01T01:41:21;15.8;;;14.1;;
61675;SDS011;47574;52.090;5.244;2023-03-01T01:42:59;15.7;;;13.6;;
61675;SDS011;47574;52.090;5.244;2023-03-01T01:46:15;15.4;;;13.7;;
61675;SDS011;47574;52.090;5.244;2023-03-01T01:47:57;15.7;;;14.1;;
61675;SDS011;47574;52.090;5.244;2023-03-01T01:49:40;16.3;;;14.1;;
61675;SDS011;47574;52.090;5.244;2023-03-01T01:51:21;15.6;;;13.9;;
61675;SDS011;47574;52.090;5.244;2023-03-01T01:54:40;14.7;;;12.9;;
61675;SDS011;47574;52.090;5.244;2023-03-01T01:56:21;15.3;;;13.5;;
61675;SDS011;47574;52.090;5.244;2023-03-01T01:58:02;17.0;;;13.8;;
61675;SDS011;47574;52.090;5.244;2023-03-01T01:59:43;15.0;;;13.5;;
61675;SDS011;47574;52.090;5.244;2023-03-01T02:03:03;18.5;;;13.2;;
61675;SDS011;47574;52.090;5.244;2023-03-01T02:04:44;17.2;;;13.5;;
61675;SDS011;47574;52.090;5.244;2023-03-01T02:06:25;14.7;;;12.9;;
61675;SDS011;47574;52.090;5.244;2023-03-01T02:08:05;16.0;;;13.5;;
61675;SDS011;47574;52.090;5.244;2023-03-01T02:11:24;16.2;;;14.0;;
61675;SDS011;47574;52.090;5.244;2023-03-01T02:13:03;17.2;;;14.8;;
61675;SDS011;47574;52.090;5.244;2023-03-01T02:14:40;16.7;;;14.9;;
61675;SDS011;47574;52.090;5.244;2023-03-01T02:17:53;15.8;;;14.1;;
61675;SDS011;47574;52.090;5.244;2023-03-01T02:19:36;17.41;;;13.8;;
61675;SDS011;47574;52.090;5.244;2023-03-01T02:21:37;15.4;;;13.7;;
61675;SDS011;47574;52.090;5.244;2023-03-01T02:23:24;15.4;;;13.7;;
61675;SDS011;47574;52.090;5.244;2023-03-01T02:25:03;17.61;;;14.7;;
61675;SDS011;47574;52.090;5.244;2023-03-01T02:28:31;20.3;;;14.8;;
61675;SDS011;47574;52.090;5.244;2023-03-01T02:30:10;18.5;;;14.0;;
61675;SDS011;47574;52.090;5.244;2023-03-01T02:31:46;16.3;;;14.2;;
61675;SDS011;47574;52.090;5.244;2023-03-01T02:33:23;16.3;;;13.5;;
61675;SDS011;47574;52.090;5.244;2023-03-01T02:36:38;15.7;;;13.7;;
61675;SDS011;47574;52.090;5.244;2023-03-01T02:38:18;18.0;;;14.5;;
61675;SDS011;47574;52.090;5.244;2023-03-01T02:39:57;15.6;;;13.9;;
61675;SDS011;47574;52.090;5.244;2023-03-01T02:41:37;18.3;;;14.9;;
61675;SDS011;47574;52.090;5.244;2023-03-01T02:44:57;16.11;;;14.4;;
61675;SDS011;47574;52.090;5.244;2023-03-01T02:46:34;15.8;;;14.1;;
61675;SDS011;47574;52.090;5.244;2023-03-01T02:48:18;17.2;;;14.5;;
61675;SDS011;47574;52.090;5.244;2023-03-01T02:49:55;21.5;;;15.3;;
61675;SDS011;47574;52.090;5.244;2023-03-01T02:55:11;17.91;;;15.7;;
61675;SDS011;47574;52.090;5.244;2023-03-01T02:56:50;18.61;;;16.61;;
61675;SDS011;47574;52.090;5.244;2023-03-01T02:58:27;20.9;;;16.3;;
61675;SDS011;47574;52.090;5.244;2023-03-01T03:01:44;19.91;;;15.4;;
61675;SDS011;47574;52.090;5.244;2023-03-01T03:03:20;18.91;;;15.7;;
61675;SDS011;47574;52.090;5.244;2023-03-01T03:04:57;18.3;;;15.6;;
61675;SDS011;47574;52.090;5.244;2023-03-01T03:08:09;20.6;;;15.6;;
61675;SDS011;47574;52.090;5.244;2023-03-01T03:09:46;18.61;;;15.2;;
61675;SDS011;47574;52.090;5.244;2023-03-01T03:11:22;17.61;;;15.1;;
61675;SDS011;47574;52.090;5.244;2023-03-01T03:12:59;17.0;;;15.2;;
61675;SDS011;47574;52.090;5.244;2023-03-01T03:16:13;18.2;;;15.2;;
61675;SDS011;47574;52.090;5.244;2023-03-01T03:17:50;18.41;;;15.7;;
61675;SDS011;47574;52.090;5.244;2023-03-01T03:19:28;18.91;;;15.6;;
61675;SDS011;47574;52.090;5.244;2023-03-01T03:22:43;19.41;;;16.5;;
61675;SDS011;47574;52.090;5.244;2023-03-01T03:24:19;18.91;;;16.0;;
61675;SDS011;47574;52.090;5.244;2023-03-01T03:25:55;17.8;;;15.5;;
61675;SDS011;47574;52.090;5.244;2023-03-01T03:29:08;19.3;;;15.8;;
61675;SDS011;47574;52.090;5.244;2023-03-01T03:30:44;18.3;;;16.3;;
61675;SDS011;47574;52.090;5.244;2023-03-01T03:32:20;18.3;;;15.9;;
61675;SDS011;47574;52.090;5.244;2023-03-01T03:33:56;19.0;;;15.6;;
61675;SDS011;47574;52.090;5.244;2023-03-01T03:37:15;18.0;;;14.8;;
61675;SDS011;47574;52.090;5.244;2023-03-01T03:38:52;18.61;;;16.3;;
61675;SDS011;47574;52.090;5.244;2023-03-01T03:40:28;18.0;;;15.6;;
61675;SDS011;47574;52.090;5.244;2023-03-01T03:43:44;18.7;;;16.2;;
61675;SDS011;47574;52.090;5.244;2023-03-01T03:45:20;19.0;;;16.2;;
61675;SDS011;47574;52.090;5.244;2023-03-01T03:46:56;18.8;;;15.9;;
61675;SDS011;47574;52.090;5.244;2023-03-01T03:48:33;17.61;;;15.5;;
61675;SDS011;47574;52.090;5.244;2023-03-01T03:51:47;19.0;;;15.2;;
61675;SDS011;47574;52.090;5.244;2023-03-01T03:53:24;20.3;;;15.7;;
61675;SDS011;47574;52.090;5.244;2023-03-01T03:55:03;16.9;;;15.1;;
61675;SDS011;47574;52.090;5.244;2023-03-01T03:58:16;16.9;;;15.1;;
61675;SDS011;47574;52.090;5.244;2023-03-01T03:59:54;20.3;;;15.7;;
61675;SDS011;47574;52.090;5.244;2023-03-01T04:01:30;19.91;;;15.5;;
61675;SDS011;47574;52.090;5.244;2023-03-01T04:03:07;16.61;;;14.9;;
61675;SDS011;47574;52.090;5.244;2023-03-01T04:06:21;17.41;;;15.2;;
61675;SDS011;47574;52.090;5.244;2023-03-01T04:07:58;16.0;;;14.3;;
61675;SDS011;47574;52.090;5.244;2023-03-01T04:09:35;17.2;;;15.3;;
61675;SDS011;47574;52.090;5.244;2023-03-01T04:12:48;20.2;;;16.0;;
61675;SDS011;47574;52.090;5.244;2023-03-01T04:14:24;19.7;;;14.8;;
61675;SDS011;47574;52.090;5.244;2023-03-01T04:16:00;17.2;;;15.4;;
61675;SDS011;47574;52.090;5.244;2023-03-01T04:19:13;17.3;;;15.5;;
61675;SDS011;47574;52.090;5.244;2023-03-01T04:20:49;17.41;;;15.6;;
61675;SDS011;47574;52.090;5.244;2023-03-01T04:22:26;17.61;;;15.4;;
61675;SDS011;47574;52.090;5.244;2023-03-01T04:24:02;17.0;;;15.2;;
61675;SDS011;47574;52.090;5.244;2023-03-01T04:27:17;19.41;;;16.0;;
61675;SDS011;47574;52.090;5.244;2023-03-01T04:28:53;16.5;;;14.7;;
61675;SDS011;47574;52.090;5.244;2023-03-01T04:30:30;18.91;;;15.8;;
61675;SDS011;47574;52.090;5.244;2023-03-01T04:33:42;18.7;;;15.9;;
61675;SDS011;47574;52.090;5.244;2023-03-01T04:35:20;17.91;;;14.8;;
61675;SDS011;47574;52.090;5.244;2023-03-01T04:36:56;18.2;;;15.5;;
61675;SDS011;47574;52.090;5.244;2023-03-01T04:40:09;17.0;;;15.2;;
61675;SDS011;47574;52.090;5.244;2023-03-01T04:41:46;16.4;;;14.7;;
61675;SDS011;47574;52.090;5.244;2023-03-01T04:43:23;16.61;;;14.4;;
61675;SDS011;47574;52.090;5.244;2023-03-01T04:44:59;18.61;;;15.0;;
61675;SDS011;47574;52.090;5.244;2023-03-01T04:48:12;20.2;;;15.2;;
61675;SDS011;47574;52.090;5.244;2023-03-01T04:49:49;17.11;;;15.3;;
61675;SDS011;47574;52.090;5.244;2023-03-01T04:51:25;18.8;;;15.4;;
61675;SDS011;47574;52.090;5.244;2023-03-01T04:54:38;19.0;;;15.9;;
61675;SDS011;47574;52.090;5.244;2023-03-01T04:56:14;18.11;;;14.8;;
61675;SDS011;47574;52.090;5.244;2023-03-01T04:57:52;17.41;;;15.1;;
61675;SDS011;47574;52.090;5.244;2023-03-01T05:01:08;16.5;;;14.1;;
61675;SDS011;47574;52.090;5.244;2023-03-01T05:02:47;15.6;;;14.0;;
61675;SDS011;47574;52.090;5.244;2023-03-01T05:04:24;17.91;;;15.8;;
61675;SDS011;47574;52.090;5.244;2023-03-01T05:06:00;17.7;;;15.8;;
61675;SDS011;47574;52.090;5.244;2023-03-01T05:09:12;17.3;;;14.8;;
61675;SDS011;47574;52.090;5.244;2023-03-01T05:10:50;20.7;;;16.61;;
61675;SDS011;47574;52.090;5.244;2023-03-01T05:12:28;17.5;;;14.9;;
61675;SDS011;47574;52.090;5.244;2023-03-01T05:15:42;17.8;;;15.8;;
61675;SDS011;47574;52.090;5.244;2023-03-01T05:17:18;16.11;;;14.4;;
61675;SDS011;47574;52.090;5.244;2023-03-01T05:18:54;19.61;;;16.4;;
61675;SDS011;47574;52.090;5.244;2023-03-01T05:22:06;20.0;;;16.9;;
61675;SDS011;47574;52.090;5.244;2023-03-01T05:23:43;18.3;;;16.4;;
61675;SDS011;47574;52.090;5.244;2023-03-01T05:25:20;17.5;;;15.6;;
61675;SDS011;47574;52.090;5.244;2023-03-01T05:26:57;18.3;;;15.5;;
61675;SDS011;47574;52.090;5.244;2023-03-01T05:30:11;17.61;;;15.5;;
61675;SDS011;47574;52.090;5.244;2023-03-01T05:31:48;18.3;;;16.4;;
61675;SDS011;47574;52.090;5.244;2023-03-01T05:33:25;20.2;;;16.2;;
61675;SDS011;47574;52.090;5.244;2023-03-01T05:36:40;20.3;;;16.7;;
61675;SDS011;47574;52.090;5.244;2023-03-01T05:38:16;16.7;;;14.9;;
61675;SDS011;47574;52.090;5.244;2023-03-01T05:39:52;17.7;;;15.8;;
61675;SDS011;47574;52.090;5.244;2023-03-01T05:41:28;20.9;;;16.7;;
61675;SDS011;47574;52.090;5.244;2023-03-01T05:44:41;18.2;;;15.9;;
61675;SDS011;47574;52.090;5.244;2023-03-01T05:46:18;17.41;;;15.5;;
61675;SDS011;47574;52.090;5.244;2023-03-01T05:47:54;17.61;;;15.8;;
61675;SDS011;47574;52.090;5.244;2023-03-01T05:51:07;18.3;;;16.11;;
61675;SDS011;47574;52.090;5.244;2023-03-01T05:52:43;20.8;;;17.11;;
61675;SDS011;47574;52.090;5.244;2023-03-01T05:54:21;17.91;;;16.0;;
61675;SDS011;47574;52.090;5.244;2023-03-01T05:57:35;19.41;;;17.11;;
61675;SDS011;47574;52.090;5.244;2023-03-01T05:59:11;22.5;;;18.8;;
61675;SDS011;47574;52.090;5.244;2023-03-01T06:00:47;24.3;;;18.11;;
61675;SDS011;47574;52.090;5.244;2023-03-01T06:02:24;22.6;;;19.0;;
61675;SDS011;47574;52.090;5.244;2023-03-01T06:05:37;24.8;;;19.3;;
61675;SDS011;47574;52.090;5.244;2023-03-01T06:07:15;36.31;;;26.4;;
61675;SDS011;47574;52.090;5.244;2023-03-01T06:08:51;33.1;;;25.6;;
61675;SDS011;47574;52.090;5.244;2023-03-01T06:12:05;25.6;;;20.9;;
61675;SDS011;47574;52.090;5.244;2023-03-01T06:13:42;20.8;;;18.3;;
61675;SDS011;47574;52.090;5.244;2023-03-01T06:15:19;28.7;;;23.2;;
61675;SDS011;47574;52.090;5.244;2023-03-01T06:18:34;24.3;;;19.41;;
61675;SDS011;47574;52.090;5.244;2023-03-01T06:20:11;21.3;;;16.4;;
61675;SDS011;47574;52.090;5.244;2023-03-01T06:21:50;18.8;;;16.8;;
61675;SDS011;47574;52.090;5.244;2023-03-01T06:23:26;21.6;;;18.2;;
61675;SDS011;47574;52.090;5.244;2023-03-01T06:26:40;23.5;;;20.11;;
61675;SDS011;47574;52.090;5.244;2023-03-01T06:28:16;25.0;;;20.6;;
61675;SDS011;47574;52.090;5.244;2023-03-01T06:29:52;34.9;;;26.4;;
61675;SDS011;47574;52.090;5.244;2023-03-01T06:33:05;22.2;;;18.41;;
61675;SDS011;47574;52.090;5.244;2023-03-01T06:34:41;23.6;;;19.7;;
61675;SDS011;47574;52.090;5.244;2023-03-01T06:36:17;27.3;;;22.3;;
61675;SDS011;47574;52.090;5.244;2023-03-01T06:39:29;32.0;;;24.0;;
61675;SDS011;47574;52.090;5.244;2023-03-01T06:41:06;22.8;;;18.61;;
61675;SDS011;47574;52.090;5.244;2023-03-01T06:42:44;20.0;;;17.7;;
61675;SDS011;47574;52.090;5.244;2023-03-01T06:44:25;22.7;;;19.11;;
61675;SDS011;47574;52.090;5.244;2023-03-01T06:47:40;23.4;;;19.3;;
61675;SDS011;47574;52.090;5.244;2023-03-01T06:49:16;23.0;;;19.0;;
61675;SDS011;47574;52.090;5.244;2023-03-01T06:50:52;26.9;;;20.0;;
61675;SDS011;47574;52.090;5.244;2023-03-01T06:54:07;20.41;;;18.2;;
61675;SDS011;47574;52.090;5.244;2023-03-01T06:55:43;20.7;;;18.41;;
61675;SDS011;47574;52.090;5.244;2023-03-01T06:57:19;21.5;;;18.41;;
61675;SDS011;47574;52.090;5.244;2023-03-01T06:58:55;28.5;;;21.5;;
61675;SDS011;47574;52.090;5.244;2023-03-01T07:02:09;22.6;;;19.0;;
61675;SDS011;47574;52.090;5.244;2023-03-01T07:03:46;25.2;;;20.2;;
61675;SDS011;47574;52.090;5.244;2023-03-01T07:05:23;25.7;;;20.3;;
61675;SDS011;47574;52.090;5.244;2023-03-01T07:08:35;26.6;;;21.1;;
61675;SDS011;47574;52.090;5.244;2023-03-01T07:10:11;22.8;;;20.0;;
61675;SDS011;47574;52.090;5.244;2023-03-01T07:11:48;25.7;;;21.0;;
61675;SDS011;47574;52.090;5.244;2023-03-01T07:15:02;24.2;;;20.3;;
61675;SDS011;47574;52.090;5.244;2023-03-01T07:16:40;24.0;;;19.5;;
61675;SDS011;47574;52.090;5.244;2023-03-01T07:18:16;25.7;;;20.0;;
61675;SDS011;47574;52.090;5.244;2023-03-01T07:19:52;23.5;;;18.8;;
61675;SDS011;47574;52.090;5.244;2023-03-01T07:23:05;22.3;;;19.41;;
61675;SDS011;47574;52.090;5.244;2023-03-01T07:24:43;23.3;;;20.11;;
61675;SDS011;47574;52.090;5.244;2023-03-01T07:26:19;26.8;;;19.91;;
61675;SDS011;47574;52.090;5.244;2023-03-01T07:29:31;24.2;;;19.7;;
61675;SDS011;47574;52.090;5.244;2023-03-01T07:31:07;23.2;;;19.2;;
61675;SDS011;47574;52.090;5.244;2023-03-01T07:32:43;23.4;;;19.0;;
61675;SDS011;47574;52.090;5.244;2023-03-01T07:35:56;29.6;;;19.3;;
61675;SDS011;47574;52.090;5.244;2023-03-01T07:37:33;23.0;;;19.11;;
61675;SDS011;47574;52.090;5.244;2023-03-01T07:39:09;24.7;;;19.2;;
61675;SDS011;47574;52.090;5.244;2023-03-01T07:40:46;23.2;;;19.3;;
61675;SDS011;47574;52.090;5.244;2023-03-01T07:43:58;25.9;;;19.11;;
61675;SDS011;47574;52.090;5.244;2023-03-01T07:45:35;23.7;;;18.5;;
61675;SDS011;47574;52.090;5.244;2023-03-01T07:47:11;24.3;;;19.2;;
61675;SDS011;47574;52.090;5.244;2023-03-01T07:50:23;26.2;;;20.11;;
61675;SDS011;47574;52.090;5.244;2023-03-01T07:51:59;25.7;;;19.41;;
61675;SDS011;47574;52.090;5.244;2023-03-01T07:53:35;22.7;;;19.3;;
61675;SDS011;47574;52.090;5.244;2023-03-01T07:56:50;23.9;;;18.8;;
61675;SDS011;47574;52.090;5.244;2023-03-01T07:58:26;22.8;;;18.8;;
61675;SDS011;47574;52.090;5.244;2023-03-01T08:00:03;24.9;;;19.0;;
61675;SDS011;47574;52.090;5.244;2023-03-01T08:01:40;24.7;;;19.5;;
61675;SDS011;47574;52.090;5.244;2023-03-01T08:04:53;22.3;;;18.91;;
61675;SDS011;47574;52.090;5.244;2023-03-01T08:06:29;22.3;;;18.3;;
61675;SDS011;47574;52.090;5.244;2023-03-01T08:08:05;23.3;;;18.61;;
61675;SDS011;47574;52.090;5.244;2023-03-01T08:11:17;23.9;;;18.3;;
61675;SDS011;47574;52.090;5.244;2023-03-01T08:12:54;22.7;;;16.9;;
61675;SDS011;47574;52.090;5.244;2023-03-01T08:14:30;27.5;;;18.2;;
61675;SDS011;47574;52.090;5.244;2023-03-01T08:17:45;27.2;;;19.7;;
61675;SDS011;47574;52.090;5.244;2023-03-01T08:19:25;22.9;;;18.3;;
61675;SDS011;47574;52.090;5.244;2023-03-01T08:21:02;27.5;;;19.41;;
61675;SDS011;47574;52.090;5.244;2023-03-01T08:22:40;25.5;;;17.8;;
61675;SDS011;47574;52.090;5.244;2023-03-01T08:25:52;22.0;;;18.41;;
61675;SDS011;47574;52.090;5.244;2023-03-01T08:27:28;24.9;;;17.61;;
61675;SDS011;47574;52.090;5.244;2023-03-01T08:29:04;24.1;;;16.5;;
61675;SDS011;47574;52.090;5.244;2023-03-01T08:32:17;20.5;;;16.0;;
61675;SDS011;47574;52.090;5.244;2023-03-01T08:33:53;20.9;;;16.61;;
61675;SDS011;47574;52.090;5.244;2023-03-01T08:35:33;19.5;;;16.3;;
61675;SDS011;47574;52.090;5.244;2023-03-01T08:38:45;19.7;;;14.9;;
61675;SDS011;47574;52.090;5.244;2023-03-01T08:40:21;19.61;;;15.5;;
61675;SDS011;47574;52.090;5.244;2023-03-01T08:41:58;22.7;;;15.4;;
61675;SDS011;47574;52.090;5.244;2023-03-01T08:43:34;18.41;;;15.3;;
61675;SDS011;47574;52.090;5.244;2023-03-01T08:46:47;17.41;;;14.6;;
61675;SDS011;47574;52.090;5.244;2023-03-01T08:48:23;20.41;;;14.2;;
61675;SDS011;47574;52.090;5.244;2023-03-01T08:50:00;17.7;;;15.1;;
61675;SDS011;47574;52.090;5.244;2023-03-01T08:53:15;17.61;;;13.8;;
61675;SDS011;47574;52.090;5.244;2023-03-01T08:54:51;13.4;;;11.5;;
61675;SDS011;47574;52.090;5.244;2023-03-01T08:56:27;16.0;;;12.3;;
61675;SDS011;47574;52.090;5.244;2023-03-01T08:59:39;14.9;;;10.9;;
61675;SDS011;47574;52.090;5.244;2023-03-01T09:01:16;14.5;;;9.81;;
61675;SDS011;47574;52.090;5.244;2023-03-01T09:02:54;12.5;;;9.9;;
61675;SDS011;47574;52.090;5.244;2023-03-01T09:04:31;13.0;;;10.21;;
61675;SDS011;47574;52.090;5.244;2023-03-01T09:07:44;14.2;;;10.7;;
61675;SDS011;47574;52.090;5.244;2023-03-01T09:09:20;12.8;;;10.6;;
61675;SDS011;47574;52.090;5.244;2023-03-01T09:10:56;13.4;;;10.1;;
61675;SDS011;47574;52.090;5.244;2023-03-01T09:14:09;13.9;;;10.1;;
61675;SDS011;47574;52.090;5.244;2023-03-01T09:15:45;15.9;;;10.1;;
61675;SDS011;47574;52.090;5.244;2023-03-01T09:17:21;12.0;;;9.81;;
61675;SDS011;47574;52.090;5.244;2023-03-01T09:20:33;8.81;;;7.9;;
61675;SDS011;47574;52.090;5.244;2023-03-01T09:22:09;10.1;;;8.1;;
61675;SDS011;47574;52.090;5.244;2023-03-01T09:23:46;11.1;;;7.9;;
61675;SDS011;47574;52.090;5.244;2023-03-01T09:25:24;10.1;;;7.3;;
61675;SDS011;47574;52.090;5.244;2023-03-01T09:28:36;9.0;;;6.6;;
61675;SDS011;47574;52.090;5.244;2023-03-01T09:30:13;9.81;;;6.8;;
61675;SDS011;47574;52.090;5.244;2023-03-01T09:31:49;8.4;;;5.8;;
61675;SDS011;47574;52.090;5.244;2023-03-01T09:35:03;7.8;;;6.3;;
61675;SDS011;47574;52.090;5.244;2023-03-01T09:36:40;9.5;;;5.5;;
61675;SDS011;47574;52.090;5.244;2023-03-01T09:38:16;7.2;;;5.9;;
61675;SDS011;47574;52.090;5.244;2023-03-01T09:41:33;9.71;;;6.3;;
61675;SDS011;47574;52.090;5.244;2023-03-01T09:43:43;6.2;;;5.11;;
61675;SDS011;47574;52.090;5.244;2023-03-01T09:45:26;6.3;;;5.0;;
61675;SDS011;47574;52.090;5.244;2023-03-01T09:47:09;5.8;;;4.5;;
61675;SDS011;47574;52.090;5.244;2023-03-01T09:48:55;7.7;;;4.3;;
61675;SDS011;47574;52.090;5.244;2023-03-01T09:50:38;5.5;;;4.5;;
61675;SDS011;47574;52.090;5.244;2023-03-01T09:54:05;5.8;;;3.7;;
61675;SDS011;47574;52.090;5.244;2023-03-01T09:55:43;4.41;;;3.8;;
61675;SDS011;47574;52.090;5.244;2023-03-01T09:57:25;4.61;;;3.8;;
61675;SDS011;47574;52.090;5.244;2023-03-01T09:59:09;6.1;;;3.9;;
61675;SDS011;47574;52.090;5.244;2023-03-01T10:00:59;6.5;;;4.8;;
61675;SDS011;47574;52.090;5.244;2023-03-01T10:04:28;9.31;;;7.4;;
61675;SDS011;47574;52.090;5.244;2023-03-01T10:06:18;7.5;;;5.4;;
61675;SDS011;47574;52.090;5.244;2023-03-01T10:08:00;11.6;;;8.31;;
61675;SDS011;47574;52.090;5.244;2023-03-01T10:10:01;8.71;;;6.2;;
61675;SDS011;47574;52.090;5.244;2023-03-01T10:11:41;6.8;;;5.2;;
61675;SDS011;47574;52.090;5.244;2023-03-01T10:15:06;8.5;;;5.3;;
61675;SDS011;47574;52.090;5.244;2023-03-01T10:16:48;6.0;;;4.41;;
61675;SDS011;47574;52.090;5.244;2023-03-01T10:18:29;6.0;;;4.7;;
61675;SDS011;47574;52.090;5.244;2023-03-01T10:20:14;5.2;;;4.2;;
61675;SDS011;47574;52.090;5.244;2023-03-01T10:22:00;5.9;;;4.61;;
61675;SDS011;47574;52.090;5.244;2023-03-01T10:25:31;6.3;;;4.2;;
61675;SDS011;47574;52.090;5.244;2023-03-01T10:27:22;6.1;;;4.91;;
61675;SDS011;47574;52.090;5.244;2023-03-01T10:29:01;6.6;;;4.8;;
61675;SDS011;47574;52.090;5.244;2023-03-01T10:30:40;6.6;;;4.8;;
61675;SDS011;47574;52.090;5.244;2023-03-01T10:32:17;5.8;;;4.61;;
61675;SDS011;47574;52.090;5.244;2023-03-01T10:35:32;5.7;;;4.61;;
61675;SDS011;47574;52.090;5.244;2023-03-01T10:37:10;7.2;;;4.91;;
61675;SDS011;47574;52.090;5.244;2023-03-01T10:38:49;6.8;;;4.91;;
61675;SDS011;47574;52.090;5.244;2023-03-01T10:42:04;6.5;;;5.0;;
61675;SDS011;47574;52.090;5.244;2023-03-01T10:43:54;6.1;;;4.5;;
61675;SDS011;47574;52.090;5.244;2023-03-01T10:45:34;5.3;;;4.3;;
61675;SDS011;47574;52.090;5.244;2023-03-01T10:47:13;6.6;;;3.7;;
61675;SDS011;47574;52.090;5.244;2023-03-01T10:51:05;4.61;;;3.7;;
61675;SDS011;47574;52.090;5.244;2023-03-01T10:52:42;4.7;;;3.6;;
61675;SDS011;47574;52.090;5.244;2023-03-01T10:54:33;4.1;;;3.7;;
61675;SDS011;47574;52.090;5.244;2023-03-01T10:56:10;4.3;;;3.6;;
61675;SDS011;47574;52.090;5.244;2023-03-01T10:57:48;4.0;;;3.7;;
61675;SDS011;47574;52.090;5.244;2023-03-01T11:01:24;5.0;;;3.8;;
61675;SDS011;47574;52.090;5.244;2023-03-01T11:03:08;5.7;;;3.9;;
61675;SDS011;47574;52.090;5.244;2023-03-01T11:04:56;6.7;;;4.1;;
61675;SDS011;47574;52.090;5.244;2023-03-01T11:06:58;4.3;;;3.9;;
61675;SDS011;47574;52.090;5.244;2023-03-01T11:08:37;4.7;;;4.0;;
61675;SDS011;47574;52.090;5.244;2023-03-01T11:10:17;5.6;;;4.0;;
61675;SDS011;47574;52.090;5.244;2023-03-01T11:13:36;5.4;;;4.0;;
61675;SDS011;47574;52.090;5.244;2023-03-01T11:15:24;5.4;;;4.0;;
61675;SDS011;47574;52.090;5.244;2023-03-01T11:17:04;4.7;;;3.9;;
61675;SDS011;47574;52.090;5.244;2023-03-01T11:18:55;5.7;;;4.3;;
61675;SDS011;47574;52.090;5.244;2023-03-01T11:20:33;4.1;;;3.8;;
61675;SDS011;47574;52.090;5.244;2023-03-01T11:23:53;7.5;;;4.5;;
61675;SDS011;47574;52.090;5.244;2023-03-01T11:25:30;5.2;;;4.3;;
61675;SDS011;47574;52.090;5.244;2023-03-01T11:27:15;4.8;;;3.9;;
61675;SDS011;47574;52.090;5.244;2023-03-01T11:29:00;4.3;;;3.9;;
61675;SDS011;47574;52.090;5.244;2023-03-01T11:32:28;4.2;;;3.8;;
61675;SDS011;47574;52.090;5.244;2023-03-01T11:34:24;4.8;;;3.3;;
61675;SDS011;47574;52.090;5.244;2023-03-01T11:36:26;4.2;;;3.4;;
61675;SDS011;47574;52.090;5.244;2023-03-01T11:38:12;4.1;;;3.7;;
61675;SDS011;47574;52.090;5.244;2023-03-01T11:39:58;4.7;;;3.7;;
61675;SDS011;47574;52.090;5.244;2023-03-01T11:41:42;5.6;;;3.7;;
61675;SDS011;47574;52.090;5.244;2023-03-01T11:43:26;3.7;;;3.4;;
61675;SDS011;47574;52.090;5.244;2023-03-01T11:46:52;5.5;;;3.4;;
61675;SDS011;47574;52.090;5.244;2023-03-01T11:49:16;4.41;;;3.3;;
61675;SDS011;47574;52.090;5.244;2023-03-01T11:52:17;3.1;;;2.8;;
61675;SDS011;47574;52.090;5.244;2023-03-01T11:54:12;4.3;;;3.1;;
61675;SDS011;47574;52.090;5.244;2023-03-01T11:56:03;4.5;;;3.1;;
61675;SDS011;47574;52.090;5.244;2023-03-01T12:00:02;3.3;;;3.0;;
61675;SDS011;47574;52.090;5.244;2023-03-01T12:02:06;3.9;;;3.2;;
61675;SDS011;47574;52.090;5.244;2023-03-01T12:05:03;4.2;;;3.8;;
61675;SDS011;47574;52.090;5.244;2023-03-01T12:07:56;6.1;;;3.7;;
61675;SDS011;47574;52.090;5.244;2023-03-01T12:09:47;7.8;;;6.2;;
61675;SDS011;47574;52.090;5.244;2023-03-01T12:11:39;10.1;;;8.4;;
61675;SDS011;47574;52.090;5.244;2023-03-01T12:13:42;5.8;;;5.3;;
61675;SDS011;47574;52.090;5.244;2023-03-01T12:15:44;4.91;;;4.41;;
61675;SDS011;47574;52.090;5.244;2023-03-01T12:17:54;4.91;;;3.0;;
61675;SDS011;47574;52.090;5.244;2023-03-01T12:19:55;4.7;;;3.1;;
61675;SDS011;47574;52.090;5.244;2023-03-01T12:21:53;6.5;;;3.1;;
61675;SDS011;47574;52.090;5.244;2023-03-01T12:24:04;3.6;;;3.0;;
61675;SDS011;47574;52.090;5.244;2023-03-01T12:26:57;3.4;;;2.9;;
61675;SDS011;47574;52.090;5.244;2023-03-01T12:28:55;3.7;;;3.0;;
61675;SDS011;47574;52.090;5.244;2023-03-01T12:31:04;4.41;;;3.5;;
61675;SDS011;47574;52.090;5.244;2023-03-01T12:33:50;4.91;;;3.3;;
61675;SDS011;47574;52.090;5.244;2023-03-01T12:37:29;3.9;;;3.2;;
61675;SDS011;47574;52.090;5.244;2023-03-01T12:39:23;3.4;;;3.1;;
61675;SDS011;47574;52.090;5.244;2023-03-01T12:41:20;4.1;;;3.5;;
61675;SDS011;47574;52.090;5.244;2023-03-01T12:43:48;5.11;;;3.6;;
61675;SDS011;47574;52.090;5.244;2023-03-01T12:45:43;3.9;;;3.5;;
61675;SDS011;47574;52.090;5.244;2023-03-01T12:47:35;5.0;;;3.7;;